Airfield :







YOU CAN JOIN US ON...

 
LOGIN :

Register | Disclaimer

   EN    FR    IT 

 









Legend :    VFR   Marginal VFR   IFR   Intensive IFR   Very Intensive IFR
Visi :
Ceiling :
>= 8 km
>= 3000ft
5 to 8 km
1000 to 3000 ft
1500m to 5 km
500 to 1000 ft
800 to 1500m
200 to 500 ft
< 800m
< 200 ft
Symbols :   Thunderstorms  Fog  Heavy snow  Heavy precipitations  Wind > 20 kt







- Airport Elevation : 40 ft
- IATA code : YRF


CYCA - Cartwright

CURRENT METAR :
  • 201700Z AUTO 26011G17KT 9SM FEW049 BKN190 23/14 A2959 RMK SLP022 DENSITY ALT 1300FT

EXPIRED METARs :
  • 201600Z AUTO 22010G17KT 9SM FEW055 BKN140 OVC160 24/13 A2959 RMK SLP022 DENSITY ALT 1400FT
  • 201500Z AUTO 21010G19KT 9SM FEW055 22/13 A2961 RMK SLP029 DENSITY ALT 1200FT

TAF TAF CYCA
Valid from the 20 at 14:00 until the 21 at 02:00 UTC


201338Z 2014/2102 20010G20KT P6SM BKN060
BECMG 2014/2016 26010G20KT
FM201700 27010G20KT P6SM -RA BKN040
FM201900 30015G25KT 4SM -RA BR OVC020
TEMPO 2019/2021 P6SM -RA OVC030
FM202100 35015G25KT 21/2SM -RA BR OVC007
TEMPO 2021/2024 6SM -SHRA BR SCT007 BKN030
FM210000 34012G22KT P6SM BKN020
TEMPO 2100/2102 SCT020 RMK FCST BASED ON AUTO OBS. NXT FCST BY 202000Z
No reported NOTAMs for that airfield.



MET'MAP, your aeronautical weather chart ! - Copyright ORBIFLY December 2007 - Disclaimer

ORBIFLY MET'MAP TEAM :

Programming & Development : Alexandra Zaïnal
Concept & Development : Baudouin d'Aumeries
Co-Development & Prog : Marc-Olivier Méhu
Technical & hardware support : Manuel Goepfert

Contact : metmap@orbifly.com




SOURCES & CREDITS :

   NOAA